Time;durP1;ratioP1;P1;durP2;ratioP2;P2;SDS_P1;SDS_P2;PMS_P1;PMS_P2;Temp;Humidity;BMP_temperature;BMP_pressure;BME280_temperature;BME280_humidity;BME280_pressure;Samples;Min_cycle;Max_cycle;Signal;HPM_P1;HPM_P2
2023/03/19 00:01:41;;;;;;;15.43;7.68;;;;;;;5.09;86.01;100989.75;5063268;28;20021;-68
2023/03/19 00:04:06;;;;;;;14.50;7.97;;;;;;;5.10;86.10;100975.94;5064718;28;20040;-68
2023/03/19 00:06:32;;;;;;;18.40;7.07;;;;;;;5.32;84.28;100973.63;5065646;28;20048;-68
2023/03/19 00:08:58;;;;;;;18.98;7.18;;;;;;;5.61;82.54;100977.75;5064245;28;20039;-68
2023/03/19 00:11:23;;;;;;;13.05;7.07;;;;;;;5.74;81.66;100979.50;5061870;28;20081;-68
2023/03/19 00:13:49;;;;;;;14.95;6.95;;;;;;;5.78;81.26;100975.78;5063836;28;20026;-68
2023/03/19 00:16:14;;;;;;;14.57;6.90;;;;;;;5.73;81.48;100976.09;5061275;28;20029;-68
2023/03/19 00:18:40;;;;;;;11.82;6.25;;;;;;;5.62;82.61;100984.56;5064570;28;20028;-68
2023/03/19 00:21:06;;;;;;;12.95;7.45;;;;;;;5.44;83.26;100985.75;5066070;28;20492;-68
2023/03/19 00:23:32;;;;;;;13.43;7.40;;;;;;;5.27;84.57;100983.41;5065156;28;20041;-68
2023/03/19 00:25:57;;;;;;;14.73;7.53;;;;;;;5.16;85.27;100993.63;5062691;28;20053;-68
2023/03/19 00:28:22;;;;;;;15.75;7.03;;;;;;;5.02;86.15;100986.72;5061319;28;20107;-68
2023/03/19 00:30:48;;;;;;;15.07;7.40;;;;;;;4.86;87.92;100996.34;5063208;28;20048;-67
2023/03/19 00:33:13;;;;;;;13.40;6.88;;;;;;;4.74;88.19;100990.19;5064260;28;20013;-69
2023/03/19 00:35:40;;;;;;;16.95;7.65;;;;;;;4.64;89.27;100989.13;5065766;28;20485;-67
2023/03/19 00:38:05;;;;;;;15.68;7.78;;;;;;;4.58;89.21;100986.91;5062173;28;20021;-68
2023/03/19 00:40:32;;;;;;;14.73;7.60;;;;;;;4.61;88.60;100984.13;5058341;28;20496;-68
2023/03/19 00:42:58;;;;;;;15.07;7.60;;;;;;;4.64;88.69;100986.53;5064039;28;20044;-68
2023/03/19 00:45:23;;;;;;;11.98;6.82;;;;;;;4.62;87.98;100994.38;5060154;28;20035;-68
2023/03/19 00:47:49;;;;;;;14.25;7.22;;;;;;;4.59;88.55;100986.81;5060025;28;20096;-67
2023/03/19 00:50:14;;;;;;;15.10;7.00;;;;;;;4.61;88.30;100976.41;5061679;28;20412;-68
2023/03/19 00:52:40;;;;;;;14.95;7.35;;;;;;;4.77;87.40;100971.09;5066960;28;20028;-68
2023/03/19 00:55:05;;;;;;;16.23;6.82;;;;;;;5.02;84.83;100968.66;5064194;28;20412;-67
2023/03/19 00:57:31;;;;;;;13.02;6.72;;;;;;;5.24;83.73;100979.28;5068040;28;20036;-67
2023/03/19 00:59:56;;;;;;;12.80;6.20;;;;;;;5.41;81.30;100985.94;5065544;28;20028;-67
2023/03/19 01:02:21;;;;;;;15.38;6.38;;;;;;;5.54;80.49;100983.41;5065725;28;20024;-68
2023/03/19 01:04:48;;;;;;;14.23;7.20;;;;;;;5.57;80.09;100984.03;5059956;28;20493;-68
2023/03/19 01:07:13;;;;;;;15.88;6.93;;;;;;;5.45;80.84;100982.25;5062540;28;20127;-69
2023/03/19 01:09:39;;;;;;;13.82;7.32;;;;;;;5.29;81.94;100972.06;5058175;28;20139;-68
2023/03/19 01:12:06;;;;;;;15.52;7.20;;;;;;;5.27;81.91;100971.31;5060205;28;20033;-69
2023/03/19 01:14:32;;;;;;;14.88;6.95;;;;;;;5.29;82.29;100977.22;5065545;28;20315;-69
2023/03/19 01:16:57;;;;;;;14.68;6.85;;;;;;;5.31;81.85;100974.53;5065816;28;20044;-67
2023/03/19 01:19:23;;;;;;;14.60;6.93;;;;;;;5.32;81.22;100966.69;5059615;28;20450;-68
2023/03/19 01:21:48;;;;;;;14.02;7.03;;;;;;;5.24;81.75;100965.53;5065431;28;20127;-68
2023/03/19 01:24:15;;;;;;;14.00;7.20;;;;;;;5.12;82.35;100964.56;5057793;28;20052;-68
2023/03/19 01:26:42;;;;;;;17.20;7.25;;;;;;;5.22;82.26;100959.63;5059717;28;20045;-68
2023/03/19 01:29:08;;;;;;;14.93;6.88;;;;;;;5.27;82.36;100960.16;5054759;28;20112;-68
2023/03/19 01:31:34;;;;;;;16.05;6.60;;;;;;;5.30;81.77;100965.13;5067107;28;20143;-68
2023/03/19 01:34:00;;;;;;;12.30;6.93;;;;;;;5.29;81.71;100966.88;5059946;28;20039;-68
2023/03/19 01:36:26;;;;;;;12.68;6.65;;;;;;;5.14;82.78;100967.06;5059454;28;20024;-68
2023/03/19 01:38:52;;;;;;;13.65;6.55;;;;;;;5.06;83.27;100971.88;5064508;28;20028;-68
2023/03/19 01:41:18;;;;;;;13.57;6.40;;;;;;;4.92;84.05;100968.41;5062946;28;20025;-69
2023/03/19 01:43:44;;;;;;;12.93;6.20;;;;;;;4.86;84.60;100968.78;5064800;28;21120;-69
2023/03/19 01:46:33;;;;;;;13.85;6.72;;;;;;;4.68;86.64;100963.94;5058975;28;20037;-68
2023/03/19 01:49:06;;;;;;;17.80;8.25;;;;;;;4.47;86.62;100982.38;5062541;28;20028;-68
2023/03/19 01:51:38;;;;;;;14.93;7.97;;;;;;;4.41;87.13;100984.50;5060919;28;20100;-68
2023/03/19 01:54:07;;;;;;;12.70;7.05;;;;;;;4.39;87.65;100983.78;5061885;28;20052;-69
2023/03/19 01:56:36;;;;;;;13.65;6.72;;;;;;;4.68;85.79;100979.44;5063681;28;20343;-68
2023/03/19 01:59:08;;;;;;;10.20;6.47;;;;;;;4.88;84.23;100982.44;5064233;28;20136;-68
2023/03/19 02:01:40;;;;;;;13.23;6.65;;;;;;;4.99;83.59;100968.84;5063864;28;20024;-69
2023/03/19 02:04:06;;;;;;;11.27;6.28;;;;;;;5.03;83.29;100977.22;5058338;28;20056;-68
2023/03/19 02:06:33;;;;;;;16.33;6.20;;;;;;;5.08;82.99;100978.59;5063407;28;20060;-68
2023/03/19 02:08:59;;;;;;;14.32;7.13;;;;;;;5.11;83.28;100967.25;5065031;28;20032;-68
2023/03/19 02:11:25;;;;;;;13.80;7.03;;;;;;;5.08;83.06;100967.44;5067537;28;20043;-68
2023/03/19 02:13:50;;;;;;;12.20;6.60;;;;;;;5.09;83.30;100967.34;5068303;28;20055;-68
2023/03/19 02:16:16;;;;;;;15.02;7.55;;;;;;;5.14;82.60;100967.06;5066191;28;20457;-68
2023/03/19 02:18:43;;;;;;;12.02;6.28;;;;;;;5.21;81.86;100963.13;5064583;28;20024;-68
2023/03/19 02:21:17;;;;;;;18.25;6.32;;;;;;;5.23;81.28;100969.03;5068296;28;20505;-69
2023/03/19 02:24:03;;;;;;;12.82;6.25;;;;;;;5.22;81.56;100965.63;5067144;28;20080;-68
2023/03/19 02:26:30;;;;;;;12.25;6.15;;;;;;;5.20;81.64;100971.84;5066715;28;20043;-68
2023/03/19 02:28:55;;;;;;;12.77;5.68;;;;;;;5.19;81.63;100970.19;5064819;28;20115;-68
2023/03/19 02:31:22;;;;;;;19.75;7.32;;;;;;;5.17;81.81;100959.13;5067678;28;20460;-68
2023/03/19 02:33:58;;;;;;;12.93;6.45;;;;;;;5.15;82.00;100954.03;5062224;28;20121;-67
2023/03/19 02:36:25;;;;;;;;;;;;;;;5.15;82.29;100964.38;5066940;28;20393;-68
2023/03/19 02:38:53;;;;;;;16.15;6.60;;;;;;;5.19;82.07;100965.00;5068069;28;19916;-68
2023/03/19 02:41:18;;;;;;;15.65;7.85;;;;;;;5.23;81.95;100966.44;5064429;28;20085;-68
2023/03/19 02:43:44;;;;;;;12.60;6.75;;;;;;;5.23;82.48;100963.88;5067554;28;20138;-69
2023/03/19 02:46:11;;;;;;;16.77;7.03;;;;;;;5.25;82.37;100964.59;5067046;28;20039;-69
2023/03/19 02:48:37;;;;;;;11.48;5.57;;;;;;;5.25;82.32;100959.44;5059946;28;20512;-68
2023/03/19 02:51:04;;;;;;;14.55;6.20;;;;;;;5.24;82.38;100960.34;5059883;28;20150;-68
2023/03/19 02:53:29;;;;;;;14.52;6.97;;;;;;;5.22;82.18;100957.03;5066694;28;20108;-69
2023/03/19 02:55:55;;;;;;;17.83;6.40;;;;;;;5.19;82.30;100954.69;5067393;28;20139;-68
2023/03/19 02:58:20;;;;;;;13.13;6.72;;;;;;;5.19;81.64;100950.34;5063676;28;20036;-68
2023/03/19 03:00:45;;;;;;;14.70;5.88;;;;;;;5.23;81.13;100946.59;5067272;28;20032;-68
2023/03/19 03:03:11;;;;;;;14.85;6.30;;;;;;;5.27;80.63;100952.41;5063394;28;20029;-69
2023/03/19 03:05:37;;;;;;;13.65;5.57;;;;;;;5.26;80.66;100946.41;5063455;28;20036;-68
2023/03/19 03:08:03;;;;;;;12.48;5.70;;;;;;;5.16;81.25;100950.53;5068007;28;20064;-68
2023/03/19 03:10:29;;;;;;;12.90;6.07;;;;;;;5.10;81.70;100948.34;5069522;28;20500;-68
2023/03/19 03:12:55;;;;;;;10.70;5.65;;;;;;;5.00;82.39;100950.69;5061515;28;20047;-68
2023/03/19 03:15:20;;;;;;;15.02;6.32;;;;;;;4.86;83.17;100948.13;5069356;28;20025;-69
2023/03/19 03:17:46;;;;;;;12.68;6.30;;;;;;;4.79;83.47;100946.03;5064149;28;20080;-68
2023/03/19 03:20:16;;;;;;;11.52;5.80;;;;;;;4.78;83.55;100942.59;5060985;28;20054;-68
2023/03/19 03:22:43;;;;;;;13.02;6.25;;;;;;;4.62;84.89;100945.34;5062084;28;20064;-68
2023/03/19 03:25:09;;;;;;;14.43;6.47;;;;;;;4.49;85.57;100948.75;5066935;28;20044;-69
2023/03/19 03:27:36;;;;;;;12.48;6.22;;;;;;;4.36;86.34;100951.25;5067263;28;20040;-69
2023/03/19 03:30:03;;;;;;;11.30;6.03;;;;;;;4.28;87.27;100956.88;5066791;28;20117;-68
2023/03/19 03:32:28;;;;;;;13.45;6.43;;;;;;;4.19;87.47;100954.88;5064763;28;20082;-68
2023/03/19 03:34:54;;;;;;;12.52;7.00;;;;;;;4.25;87.45;100958.81;5059806;28;20029;-68
2023/03/19 03:37:19;;;;;;;17.48;7.20;;;;;;;4.26;87.25;100973.34;5068245;28;20035;-68
2023/03/19 03:39:45;;;;;;;13.88;6.25;;;;;;;4.21;87.98;100970.25;5069595;28;20016;-68
2023/03/19 03:42:10;;;;;;;12.35;6.55;;;;;;;4.18;88.16;100966.09;5062103;28;20121;-68
2023/03/19 03:44:36;;;;;;;12.95;5.88;;;;;;;4.33;87.24;100972.06;5062308;28;20123;-68
2023/03/19 03:47:02;;;;;;;14.77;6.03;;;;;;;4.52;86.26;100976.97;5061810;28;20389;-69
2023/03/19 03:49:27;;;;;;;10.38;5.63;;;;;;;4.61;86.04;100968.66;5056758;28;20396;-69
2023/03/19 03:51:53;;;;;;;12.60;6.35;;;;;;;4.64;85.12;100968.47;5065020;28;20127;-69
2023/03/19 03:54:18;;;;;;;12.30;5.63;;;;;;;4.66;85.20;100958.88;5066634;28;20033;-69
2023/03/19 03:56:44;;;;;;;13.85;5.57;;;;;;;4.58;85.66;100958.53;5065331;28;20386;-68
2023/03/19 03:59:09;;;;;;;13.57;6.07;;;;;;;4.51;85.67;100958.06;5061425;28;20037;-68
2023/03/19 04:01:35;;;;;;;13.15;6.35;;;;;;;4.29;87.17;100960.28;5063300;28;20036;-68
2023/03/19 04:04:01;;;;;;;18.27;6.18;;;;;;;3.99;89.07;100960.38;5065782;28;20040;-68
2023/03/19 04:06:27;;;;;;;14.65;7.47;;;;;;;3.88;89.93;100957.56;5065227;28;20035;-68
2023/03/19 04:08:53;;;;;;;10.73;5.45;;;;;;;3.88;89.76;100957.56;5062808;28;20115;-68
2023/03/19 04:11:19;;;;;;;11.95;5.18;;;;;;;4.12;88.39;100963.06;5066728;28;20029;-68
2023/03/19 04:13:44;;;;;;;10.85;5.68;;;;;;;4.20;87.88;100966.00;5065489;28;20059;-68
2023/03/19 04:16:10;;;;;;;10.82;5.35;;;;;;;4.30;86.86;100969.66;5064608;28;20037;-68
2023/03/19 04:18:36;;;;;;;8.23;4.05;;;;;;;4.46;85.80;100965.25;5064963;28;20024;-68
2023/03/19 04:21:03;;;;;;;12.27;5.65;;;;;;;4.56;85.93;100962.94;5066358;28;20469;-68
2023/03/19 04:23:29;;;;;;;10.95;5.90;;;;;;;4.62;85.78;100960.81;5058550;28;20064;-69
2023/03/19 04:26:02;;;;;;;12.57;6.40;;;;;;;4.65;86.19;100970.13;5060227;28;20040;-68
2023/03/19 04:28:28;;;;;;;15.18;6.70;;;;;;;4.61;87.39;100968.66;5068897;28;20142;-70
2023/03/19 04:31:03;;;;;;;18.38;7.75;;;;;;;4.58;87.67;100968.84;5065116;28;20033;-68
2023/03/19 04:33:29;;;;;;;15.35;7.10;;;;;;;4.54;87.64;100973.38;5066911;28;20147;-69
2023/03/19 04:35:55;;;;;;;16.27;7.40;;;;;;;4.52;88.15;100974.38;5064085;28;20197;-68
2023/03/19 04:38:21;;;;;;;17.20;7.63;;;;;;;4.54;87.82;100982.84;5065997;28;20025;-68
2023/03/19 04:40:47;;;;;;;12.65;6.05;;;;;;;4.59;87.77;100983.41;5064688;28;20074;-68
2023/03/19 04:43:13;;;;;;;18.02;7.40;;;;;;;4.61;87.15;100982.38;5066605;28;20048;-69
2023/03/19 04:45:38;;;;;;;15.00;6.18;;;;;;;4.64;86.84;100979.63;5065985;28;20028;-69
2023/03/19 04:48:04;;;;;;;12.57;5.97;;;;;;;4.70;86.48;100977.59;5059957;28;20063;-69
2023/03/19 04:50:29;;;;;;;11.27;6.00;;;;;;;4.67;86.37;100976.03;5063094;28;20056;-69
2023/03/19 04:52:55;;;;;;;12.50;5.20;;;;;;;4.71;85.53;100974.91;5066160;28;20136;-68
2023/03/19 04:55:20;;;;;;;10.93;4.82;;;;;;;4.76;85.22;100969.44;5066266;28;20119;-68
2023/03/19 04:57:46;;;;;;;13.60;5.15;;;;;;;4.80;84.65;100973.50;5065638;28;20093;-69
2023/03/19 05:00:13;;;;;;;9.05;4.80;;;;;;;4.85;84.90;100976.63;5066213;28;20040;-68
2023/03/19 05:02:40;;;;;;;12.82;5.82;;;;;;;4.89;84.81;100980.66;5065804;28;20337;-68
2023/03/19 05:05:06;;;;;;;13.05;5.57;;;;;;;4.95;84.79;100973.38;5060176;28;20031;-68
2023/03/19 05:07:32;;;;;;;12.95;5.85;;;;;;;5.02;84.33;100985.91;5063034;28;20020;-69
2023/03/19 05:09:57;;;;;;;18.63;6.93;;;;;;;5.05;84.57;100991.72;5064282;28;20041;-67
2023/03/19 05:12:23;;;;;;;31.88;13.68;;;;;;;5.05;84.70;100996.03;5062633;28;20090;-68
2023/03/19 05:14:48;;;;;;;33.65;13.20;;;;;;;5.06;84.39;100997.69;5062640;28;20029;-68
2023/03/19 05:17:14;;;;;;;21.83;9.30;;;;;;;5.03;84.90;100990.97;5061654;28;20043;-69
2023/03/19 05:19:39;;;;;;;20.20;8.10;;;;;;;5.02;85.33;100989.31;5064245;28;20146;-68
2023/03/19 05:22:05;;;;;;;13.93;7.20;;;;;;;5.02;85.35;100994.47;5063057;28;20431;-68
2023/03/19 05:24:30;;;;;;;14.05;6.80;;;;;;;5.02;85.60;101006.56;5064914;28;20040;-69
2023/03/19 05:26:56;;;;;;;18.13;6.90;;;;;;;5.02;85.31;100996.25;5064059;28;20028;-69
2023/03/19 05:29:22;;;;;;;12.68;6.45;;;;;;;5.06;85.28;100997.69;5060650;28;20025;-69
2023/03/19 05:31:48;;;;;;;15.25;6.80;;;;;;;5.08;84.77;100999.28;5062778;28;20039;-68
2023/03/19 05:34:13;;;;;;;15.30;6.03;;;;;;;5.14;84.26;101005.81;5059883;28;20086;-69
2023/03/19 05:36:39;;;;;;;13.15;5.78;;;;;;;5.21;83.67;101019.97;5063316;28;20028;-68
2023/03/19 05:39:04;;;;;;;15.73;6.30;;;;;;;5.28;83.59;101027.22;5059049;28;20025;-69
2023/03/19 05:41:31;;;;;;;13.00;6.57;;;;;;;5.35;83.17;101025.09;5062991;28;20025;-68
2023/03/19 05:43:56;;;;;;;16.83;6.63;;;;;;;5.42;83.01;101028.94;5062736;28;20032;-69
2023/03/19 05:46:23;;;;;;;18.20;6.43;;;;;;;5.48;83.05;101033.72;5071704;28;20032;-68
2023/03/19 05:48:49;;;;;;;12.85;7.05;;;;;;;5.54;82.86;101032.50;5063772;28;20366;-69
2023/03/19 05:51:14;;;;;;;15.63;7.75;;;;;;;5.58;82.80;101032.22;5062586;28;20040;-68
2023/03/19 05:53:40;;;;;;;13.38;6.78;;;;;;;5.60;82.94;101027.78;5063385;28;20079;-68
2023/03/19 05:56:06;;;;;;;14.52;6.00;;;;;;;5.67;82.57;101030.81;5062062;28;20099;-69
2023/03/19 05:58:32;;;;;;;15.93;6.85;;;;;;;5.71;82.48;101028.81;5061638;28;20036;-69
2023/03/19 06:00:57;;;;;;;15.05;6.55;;;;;;;5.73;82.76;101037.31;5063540;28;20041;-68
2023/03/19 06:03:23;;;;;;;18.77;7.63;;;;;;;5.75;81.90;101025.94;5065465;28;20039;-69
2023/03/19 06:05:50;;;;;;;14.25;6.97;;;;;;;5.82;82.12;101028.97;5065190;28;20081;-69
2023/03/19 06:08:16;;;;;;;15.02;5.68;;;;;;;5.84;81.50;101034.84;5058264;28;20028;-68
2023/03/19 06:10:41;;;;;;;16.95;7.47;;;;;;;5.89;81.60;101041.41;5065344;28;20508;-68
2023/03/19 06:13:07;;;;;;;11.75;5.43;;;;;;;5.93;81.01;101040.28;5066386;28;20033;-70
2023/03/19 06:15:32;;;;;;;16.55;6.38;;;;;;;5.97;81.08;101051.25;5068665;28;20111;-69
2023/03/19 06:17:58;;;;;;;13.68;6.10;;;;;;;5.98;80.57;101047.75;5063134;28;21506;-69
2023/03/19 06:20:24;;;;;;;17.65;7.43;;;;;;;6.02;80.68;101051.81;5058039;28;20040;-70
2023/03/19 06:22:50;;;;;;;16.30;6.32;;;;;;;6.04;80.59;101049.94;5065618;28;20513;-69
2023/03/19 06:25:16;;;;;;;14.80;6.60;;;;;;;6.08;80.88;101056.56;5062676;28;20051;-69
2023/03/19 06:27:42;;;;;;;17.35;6.90;;;;;;;6.10;80.59;101062.47;5069901;28;20036;-69
2023/03/19 06:30:08;;;;;;;14.85;6.28;;;;;;;6.12;80.72;101050.25;5066579;28;20157;-69
2023/03/19 06:32:35;;;;;;;19.90;6.90;;;;;;;6.12;80.21;101052.84;5068151;28;20043;-68
2023/03/19 06:35:00;;;;;;;18.48;6.85;;;;;;;6.14;80.09;101058.75;5061034;28;20055;-69
2023/03/19 06:37:26;;;;;;;15.45;6.68;;;;;;;6.15;79.86;101065.56;5064137;28;20485;-69
2023/03/19 06:39:53;;;;;;;16.20;7.68;;;;;;;6.15;79.63;101062.97;5070908;28;20138;-69
2023/03/19 06:42:20;;;;;;;16.48;7.22;;;;;;;6.14;79.88;101057.94;5061150;28;20036;-69
2023/03/19 06:44:46;;;;;;;17.13;7.90;;;;;;;6.15;79.80;101075.06;5061185;28;20163;-69
2023/03/19 06:47:11;;;;;;;18.77;8.52;;;;;;;6.13;79.74;101079.56;5063713;28;20119;-69
2023/03/19 06:49:37;;;;;;;15.60;8.10;;;;;;;6.17;79.69;101089.56;5062693;28;20036;-69
2023/03/19 06:52:02;;;;;;;16.77;7.05;;;;;;;6.22;80.15;101095.28;5063872;28;20032;-68
2023/03/19 06:54:28;;;;;;;16.80;6.95;;;;;;;6.25;79.70;101097.66;5065536;28;20085;-69
2023/03/19 06:56:53;;;;;;;16.45;6.75;;;;;;;6.27;79.84;101100.97;5068088;28;20032;-69
2023/03/19 06:59:19;;;;;;;14.77;6.57;;;;;;;6.27;79.48;101094.97;5063090;28;20056;-69
2023/03/19 07:01:45;;;;;;;12.63;6.13;;;;;;;6.31;79.60;101092.09;5057369;28;20029;-69
2023/03/19 07:04:11;;;;;;;13.73;6.15;;;;;;;6.41;79.25;101087.13;5063951;28;20048;-69
2023/03/19 07:06:36;;;;;;;12.88;7.05;;;;;;;6.46;79.61;101094.59;5056102;28;20048;-68
2023/03/19 07:09:03;;;;;;;12.90;6.30;;;;;;;6.47;79.67;101085.88;5066058;28;20538;-68
2023/03/19 07:11:28;;;;;;;20.52;7.22;;;;;;;6.51;79.54;101098.53;5064167;28;20052;-67
2023/03/19 07:13:54;;;;;;;15.60;5.78;;;;;;;6.62;78.83;101100.38;5061220;28;20466;-68
2023/03/19 07:16:19;;;;;;;12.27;5.57;;;;;;;6.82;77.59;101094.69;5065993;28;20119;-67
2023/03/19 07:18:45;;;;;;;12.45;5.85;;;;;;;6.96;76.74;101104.91;5058969;28;20039;-68
2023/03/19 07:21:10;;;;;;;11.93;6.32;;;;;;;7.14;76.26;101101.97;5055001;28;20036;-68
2023/03/19 07:23:35;;;;;;;12.10;5.78;;;;;;;7.31;75.99;101106.81;5064052;28;20055;-68
2023/03/19 07:26:01;;;;;;;17.63;6.63;;;;;;;7.49;75.36;101115.88;5067038;28;20459;-68
2023/03/19 07:28:27;;;;;;;12.65;5.90;;;;;;;7.60;75.69;101126.31;5062893;28;20036;-68
2023/03/19 07:30:53;;;;;;;12.73;5.80;;;;;;;7.62;74.81;101124.44;5063654;28;20504;-68
2023/03/19 07:33:20;;;;;;;14.73;6.75;;;;;;;7.65;74.85;101128.56;5066527;28;20120;-68
2023/03/19 07:35:45;;;;;;;17.85;7.65;;;;;;;7.62;74.60;101124.44;5065969;28;20031;-67
2023/03/19 07:38:11;;;;;;;14.85;6.03;;;;;;;7.63;74.53;101126.09;5065414;28;20040;-69
2023/03/19 07:40:36;;;;;;;15.52;7.45;;;;;;;7.62;74.93;101121.00;5066593;28;20026;-68
2023/03/19 07:43:03;;;;;;;17.50;7.28;;;;;;;7.60;74.19;101121.13;5061186;28;20116;-68
2023/03/19 07:45:28;;;;;;;15.90;7.15;;;;;;;7.58;75.19;101123.00;5065921;28;20091;-69
2023/03/19 07:47:54;;;;;;;13.25;6.53;;;;;;;7.66;74.34;101109.47;5059831;28;20553;-69
2023/03/19 07:50:19;;;;;;;14.23;6.78;;;;;;;7.89;73.87;101120.81;5065295;28;20033;-69
2023/03/19 07:52:46;;;;;;;13.85;6.43;;;;;;;8.02;73.00;101121.56;5063723;28;20550;-70
2023/03/19 07:55:12;;;;;;;12.55;5.38;;;;;;;8.08;72.49;101120.28;5061956;28;20052;-69
2023/03/19 07:57:37;;;;;;;12.27;5.55;;;;;;;8.13;72.25;101115.56;5068019;28;20481;-69
2023/03/19 08:00:04;;;;;;;13.35;5.57;;;;;;;8.23;71.97;101121.75;5065844;28;20031;-68
2023/03/19 08:02:30;;;;;;;12.63;5.85;;;;;;;8.39;71.68;101121.47;5065987;28;20098;-68
2023/03/19 08:04:55;;;;;;;22.92;6.07;;;;;;;8.51;71.35;101123.97;5062561;28;20466;-69
2023/03/19 08:07:21;;;;;;;11.98;5.07;;;;;;;8.67;71.34;101118.44;5049799;28;20032;-68
2023/03/19 08:09:47;;;;;;;12.13;5.20;;;;;;;8.81;70.91;101120.00;5059056;28;20040;-68
2023/03/19 08:12:12;;;;;;;11.20;4.95;;;;;;;8.95;70.28;101122.38;5061026;28;20478;-68
2023/03/19 08:14:38;;;;;;;13.18;5.50;;;;;;;9.19;69.47;101120.47;5063420;28;20489;-69
2023/03/19 08:17:04;;;;;;;13.25;5.03;;;;;;;9.46;68.45;101112.25;5064886;28;20082;-68
2023/03/19 08:19:29;;;;;;;10.27;5.28;;;;;;;9.59;67.33;101122.50;5062046;28;20112;-68
2023/03/19 08:21:55;;;;;;;14.95;4.40;;;;;;;9.70;67.08;101119.06;5062325;28;20159;-68
2023/03/19 08:24:21;;;;;;;13.15;4.93;;;;;;;9.63;66.90;101122.16;5059328;28;20052;-68
2023/03/19 08:26:46;;;;;;;13.77;5.38;;;;;;;9.55;67.36;101123.69;5061043;28;20094;-68
2023/03/19 08:29:12;;;;;;;10.05;4.72;;;;;;;9.58;67.48;101123.47;5066303;28;20115;-68
2023/03/19 08:31:37;;;;;;;12.65;5.60;;;;;;;9.59;67.32;101125.13;5066740;28;20090;-68
2023/03/19 08:34:03;;;;;;;16.98;5.72;;;;;;;9.68;67.86;101131.34;5061338;28;20063;-69
2023/03/19 08:36:29;;;;;;;10.05;5.30;;;;;;;9.63;67.72;101124.75;5064824;28;20072;-68
2023/03/19 08:38:55;;;;;;;12.52;6.00;;;;;;;9.76;67.46;101131.56;5060579;28;20032;-68
2023/03/19 08:41:21;;;;;;;13.15;4.85;;;;;;;10.02;67.26;101119.03;5063496;28;20028;-67
2023/03/19 08:43:47;;;;;;;14.73;5.65;;;;;;;10.39;65.61;101124.72;5064362;28;20480;-67
2023/03/19 08:46:13;;;;;;;15.55;5.82;;;;;;;10.86;64.14;101118.13;5066268;28;20039;-70
2023/03/19 08:48:38;;;;;;;14.15;5.72;;;;;;;11.43;61.76;101125.28;5067096;28;20036;-70
2023/03/19 08:51:04;;;;;;;13.38;6.00;;;;;;;11.98;60.73;101119.59;5062349;28;20028;-70
2023/03/19 08:53:31;;;;;;;11.20;6.13;;;;;;;12.64;58.59;101107.41;5068408;28;20363;-69
2023/03/19 08:55:59;;;;;;;11.82;6.00;;;;;;;13.45;56.44;101116.28;5066022;28;20024;-70
2023/03/19 08:58:26;;;;;;;9.68;4.90;;;;;;;13.79;55.86;101108.56;5057095;28;20063;-70
2023/03/19 09:00:52;;;;;;;12.70;4.68;;;;;;;14.54;53.15;101111.66;5060997;28;20086;-70
2023/03/19 09:03:19;;;;;;;16.92;6.28;;;;;;;14.70;53.39;101111.72;5062688;28;20035;-70
2023/03/19 09:05:45;;;;;;;11.15;4.88;;;;;;;14.59;53.87;101125.13;5063682;28;20367;-69
2023/03/19 09:08:10;;;;;;;9.68;4.43;;;;;;;14.54;53.63;101127.38;5062680;28;20043;-70
2023/03/19 09:10:36;;;;;;;7.40;3.83;;;;;;;14.35;54.55;101124.91;5062688;28;20513;-70
2023/03/19 09:13:02;;;;;;;9.00;3.63;;;;;;;13.33;56.62;101130.53;5059906;28;20473;-70
2023/03/19 09:15:27;;;;;;;9.45;3.85;;;;;;;12.42;57.83;101139.09;5059877;28;20064;-69
2023/03/19 09:17:53;;;;;;;6.93;3.22;;;;;;;12.30;58.33;101139.22;5060030;28;20074;-70
2023/03/19 09:20:19;;;;;;;7.47;2.88;;;;;;;12.32;58.55;101143.50;5063005;28;20054;-69
2023/03/19 09:22:45;;;;;;;6.78;2.75;;;;;;;12.35;57.75;101136.19;5061948;28;20063;-69
2023/03/19 09:25:10;;;;;;;5.72;2.38;;;;;;;12.23;57.94;101145.16;5063849;28;20059;-70
2023/03/19 09:27:36;;;;;;;8.70;2.83;;;;;;;12.11;58.50;101141.03;5059775;28;20102;-70
2023/03/19 09:30:02;;;;;;;6.70;2.50;;;;;;;12.09;58.27;101149.03;5060844;28;20056;-70
2023/03/19 09:32:27;;;;;;;7.10;2.60;;;;;;;12.15;57.48;101138.03;5061553;28;20039;-70
2023/03/19 09:34:53;;;;;;;6.28;2.85;;;;;;;12.14;57.82;101141.59;5055813;28;20028;-69
2023/03/19 09:37:18;;;;;;;7.60;2.90;;;;;;;12.15;57.75;101138.03;5057182;28;20523;-71
2023/03/19 09:39:44;;;;;;;6.68;2.80;;;;;;;12.29;57.31;101137.56;5055167;28;20099;-71
2023/03/19 09:42:28;;;;;;;8.10;3.22;;;;;;;12.41;56.37;101137.44;5056909;28;20033;-70
2023/03/19 09:44:53;;;;;;;6.13;2.35;;;;;;;12.41;55.94;101138.25;5059527;28;20743;-71
2023/03/19 09:47:25;;;;;;;5.68;2.55;;;;;;;12.27;54.48;101134.31;5061456;28;20043;-69
2023/03/19 09:49:53;;;;;;;6.82;2.33;;;;;;;12.14;54.43;101120.69;5056516;28;20044;-70
2023/03/19 09:52:42;;;;;;;7.13;2.28;;;;;;;12.12;54.43;101111.34;5060052;28;20028;-69
2023/03/19 09:55:23;;;;;;;4.63;2.10;;;;;;;12.12;54.19;101114.78;5053859;28;20538;-69
2023/03/19 09:57:50;;;;;;;4.93;1.83;;;;;;;12.15;54.73;101111.91;5057686;28;20131;-69
2023/03/19 10:00:24;;;;;;;6.53;1.67;;;;;;;12.09;51.99;101111.63;5061956;28;20032;-69
2023/03/19 10:02:55;;;;;;;5.22;1.48;;;;;;;12.06;50.14;101104.91;5054796;28;20478;-68
2023/03/19 10:05:49;;;;;;;5.10;1.67;;;;;;;12.04;50.19;101103.38;5064228;28;20127;-69
2023/03/19 10:08:52;;;;;;;5.40;1.42;;;;;;;12.17;51.76;101115.19;5061020;28;20041;-70
2023/03/19 10:11:58;;;;;;;5.82;1.67;;;;;;;12.53;51.78;101111.00;5058973;28;20124;-69
2023/03/19 10:14:39;;;;;;;3.58;1.58;;;;;;;12.76;52.51;101116.69;5056288;28;20028;-69
2023/03/19 10:17:09;;;;;;;5.43;1.48;;;;;;;12.74;53.15;101118.66;5058880;28;20033;-69
2023/03/19 10:19:54;;;;;;;5.18;1.75;;;;;;;12.75;50.83;101115.06;5058250;28;20086;-69
2023/03/19 10:22:32;;;;;;;5.40;1.85;;;;;;;12.74;52.55;101116.03;5058735;28;20037;-71
2023/03/19 10:24:58;;;;;;;5.32;2.13;;;;;;;12.68;53.23;101119.22;5055759;28;20044;-70
2023/03/19 10:27:29;;;;;;;4.50;1.77;;;;;;;12.75;53.75;101119.47;5058752;28;20041;-71
2023/03/19 10:29:55;;;;;;;5.50;2.35;;;;;;;12.80;53.77;101118.06;5062901;28;20040;-72
2023/03/19 10:32:33;;;;;;;6.28;2.40;;;;;;;12.70;52.75;101117.28;5063147;28;20035;-72
2023/03/19 10:35:05;;;;;;;5.97;1.67;;;;;;;12.68;53.41;101118.41;5061501;28;20521;-72
2023/03/19 10:37:33;;;;;;;5.22;1.73;;;;;;;12.76;53.51;101114.09;5063173;28;20434;-71
2023/03/19 10:39:59;;;;;;;7.00;1.88;;;;;;;12.78;53.34;101124.41;5064848;28;20071;-71
2023/03/19 10:42:49;;;;;;;4.40;1.38;;;;;;;12.68;53.28;101124.47;5068584;28;20044;-70
2023/03/19 10:45:26;;;;;;;5.00;1.52;;;;;;;12.78;53.30;101113.94;5058797;28;20399;-71
2023/03/19 10:47:54;;;;;;;3.50;1.40;;;;;;;12.93;53.38;101122.97;5064484;28;20048;-71
2023/03/19 10:50:26;;;;;;;6.55;1.33;;;;;;;13.03;53.11;101125.56;5062904;28;20025;-71
2023/03/19 10:53:20;;;;;;;4.32;1.10;;;;;;;13.11;52.69;101126.50;5065058;28;20032;-71
2023/03/19 10:55:53;;;;;;;4.15;1.15;;;;;;;13.25;50.89;101117.34;5064511;28;20045;-71
2023/03/19 10:58:24;;;;;;;4.63;1.00;;;;;;;13.44;51.99;101114.63;5065117;28;20040;-71
2023/03/19 11:00:56;;;;;;;3.30;1.50;;;;;;;13.58;51.75;101116.75;5060160;28;20029;-71
2023/03/19 11:03:36;;;;;;;2.83;1.20;;;;;;;13.70;50.31;101111.28;5061071;28;20032;-71
2023/03/19 11:06:30;;;;;;;4.78;1.50;;;;;;;13.68;51.62;101115.84;5065611;28;20337;-71
2023/03/19 11:08:59;;;;;;;4.47;1.55;;;;;;;13.56;52.53;101104.78;5062915;28;20099;-72
2023/03/19 11:11:41;;;;;;;4.57;1.10;;;;;;;13.52;51.87;101100.81;5060714;28;20045;-72
2023/03/19 11:14:16;;;;;;;6.15;2.25;;;;;;;13.46;51.21;101104.00;5062787;28;20040;-71
2023/03/19 11:17:35;;;;;;;6.68;2.30;;;;;;;13.25;51.44;101107.69;5067005;28;20090;-73
2023/03/19 11:20:27;;;;;;;6.13;2.70;;;;;;;13.15;52.05;101104.31;5056418;28;20028;-73
2023/03/19 11:22:55;;;;;;;5.95;1.58;;;;;;;13.18;53.37;101103.22;5066033;28;20441;-73
2023/03/19 11:25:45;;;;;;;7.30;2.13;;;;;;;13.15;52.64;101098.25;5064841;28;20127;-73
2023/03/19 11:28:15;;;;;;;4.80;1.90;;;;;;;13.06;53.76;101099.94;5060516;28;20036;-75